FDB4JZ OMDB-OBBI
Flight info
| Callsign | FDB4JZ |
|---|---|
| Flight time | 1h 6m |
| Altitude | 26000 |
| Route | NABIX P699 ORMID M556 ORDIG |
| Aircraft | B738/M-SDE2E3FGHIRWXY/LB1 |
Departure
| Time | 2026-04-24 14:24 |
|---|---|
| Airport | Dubai International Airport (OMDB) |
Arrival
| Time | 2026-04-24 15:31 |
|---|---|
| Airport | Bahrain International Airport (OBBI) |
| Time | Latitude | Longitude | Altitude | Speed | Heading |
|---|---|---|---|---|---|
| 2026-04-24 14:05 | 25.25976 | 55.36681 | 23 ft | 0 kts | 31° |
| 2026-04-24 14:15 | 25.25970 | 55.36677 | 21 ft | 3 kts | 32° |
| 2026-04-24 14:16 | 25.25953 | 55.36665 | 22 ft | 3 kts | 35° |
| 2026-04-24 14:16 | 25.25937 | 55.36652 | 21 ft | 3 kts | 40° |
| 2026-04-24 14:16 | 25.25922 | 55.36637 | 24 ft | 3 kts | 49° |
| 2026-04-24 14:17 | 25.25907 | 55.36602 | 23 ft | 2 kts | 113° |
| 2026-04-24 14:17 | 25.25908 | 55.36598 | 22 ft | 1 kts | 122° |
| 2026-04-24 14:20 | 25.25900 | 55.36614 | 22 ft | 9 kts | 121° |
| 2026-04-24 14:20 | 25.25859 | 55.36690 | 21 ft | 13 kts | 121° |
| 2026-04-24 14:20 | 25.25790 | 55.36818 | 21 ft | 11 kts | 122° |
| 2026-04-24 14:21 | 25.25729 | 55.36861 | 21 ft | 9 kts | 176° |
| 2026-04-24 14:21 | 25.25659 | 55.36872 | 22 ft | 15 kts | 149° |
| 2026-04-24 14:21 | 25.25578 | 55.37014 | 23 ft | 28 kts | 120° |
| 2026-04-24 14:21 | 25.25496 | 55.37161 | 25 ft | 27 kts | 122° |
| 2026-04-24 14:22 | 25.25413 | 55.37308 | 23 ft | 19 kts | 121° |
| 2026-04-24 14:22 | 25.25344 | 55.37434 | 25 ft | 21 kts | 121° |
| 2026-04-24 14:22 | 25.25171 | 55.37733 | 23 ft | 27 kts | 122° |
| 2026-04-24 14:23 | 25.25081 | 55.37902 | 22 ft | 26 kts | 118° |
| 2026-04-24 14:23 | 25.24993 | 55.38033 | 22 ft | 14 kts | 151° |
| 2026-04-24 14:23 | 25.24925 | 55.38009 | 27 ft | 16 kts | 213° |
| 2026-04-24 14:23 | 25.24874 | 55.37907 | 29 ft | 17 kts | 297° |
| 2026-04-24 14:24 | 25.25017 | 55.37646 | 30 ft | 80 kts | 302° |
| 2026-04-24 14:24 | 25.25463 | 55.36852 | 28 ft | 160 kts | 301° |
| 2026-04-24 14:24 | 25.26156 | 55.35648 | 371 ft | 198 kts | 305° |
| 2026-04-24 14:24 | 25.26913 | 55.34316 | 1193 ft | 208 kts | 303° |
| 2026-04-24 14:25 | 25.27415 | 55.33396 | 1790 ft | 214 kts | 303° |
| 2026-04-24 14:25 | 25.28486 | 55.31442 | 2926 ft | 228 kts | 301° |
| 2026-04-24 14:25 | 25.29163 | 55.29811 | 3618 ft | 250 kts | 279° |
| 2026-04-24 14:25 | 25.28945 | 55.27822 | 4175 ft | 280 kts | 251° |
| 2026-04-24 14:26 | 25.28156 | 55.25694 | 4536 ft | 314 kts | 253° |
| 2026-04-24 14:26 | 25.27813 | 55.23275 | 5514 ft | 322 kts | 265° |
| 2026-04-24 14:26 | 25.27643 | 55.20810 | 6690 ft | 323 kts | 265° |
| 2026-04-24 14:26 | 25.27456 | 55.18324 | 7761 ft | 326 kts | 265° |
| 2026-04-24 14:27 | 25.27243 | 55.15814 | 8823 ft | 328 kts | 264° |
| 2026-04-24 14:27 | 25.27024 | 55.13357 | 10239 ft | 315 kts | 264° |
| 2026-04-24 14:27 | 25.26805 | 55.10948 | 11215 ft | 320 kts | 264° |
| 2026-04-24 14:27 | 25.26570 | 55.08417 | 11531 ft | 342 kts | 263° |
| 2026-04-24 14:28 | 25.26317 | 55.05757 | 12150 ft | 352 kts | 263° |
| 2026-04-24 14:28 | 25.26058 | 55.03054 | 13030 ft | 354 kts | 263° |
| 2026-04-24 14:28 | 25.25795 | 55.00338 | 13838 ft | 358 kts | 263° |
| 2026-04-24 14:28 | 25.25528 | 54.97591 | 14499 ft | 363 kts | 263° |
| 2026-04-24 14:29 | 25.25253 | 54.94779 | 14915 ft | 376 kts | 264° |
| 2026-04-24 14:29 | 25.24965 | 54.91838 | 15018 ft | 395 kts | 264° |
| 2026-04-24 14:29 | 25.24665 | 54.88780 | 15032 ft | 415 kts | 264° |
| 2026-04-24 14:29 | 25.24346 | 54.85544 | 15035 ft | 433 kts | 264° |
| 2026-04-24 14:30 | 25.24123 | 54.83287 | 15034 ft | 444 kts | 264° |
| 2026-04-24 14:30 | 25.23676 | 54.78766 | 15801 ft | 440 kts | 264° |
| 2026-04-24 14:30 | 25.23352 | 54.75513 | 17476 ft | 410 kts | 264° |
| 2026-04-24 14:30 | 25.23051 | 54.72493 | 19115 ft | 383 kts | 264° |
| 2026-04-24 14:31 | 25.22764 | 54.69616 | 20103 ft | 375 kts | 263° |
| 2026-04-24 14:31 | 25.22476 | 54.66722 | 20372 ft | 385 kts | 263° |
| 2026-04-24 14:31 | 25.22180 | 54.63750 | 20639 ft | 393 kts | 263° |
| 2026-04-24 14:31 | 25.21878 | 54.60740 | 21101 ft | 395 kts | 263° |
| 2026-04-24 14:32 | 25.21575 | 54.57718 | 21636 ft | 396 kts | 263° |
| 2026-04-24 14:32 | 25.21349 | 54.54688 | 22111 ft | 398 kts | 268° |
| 2026-04-24 14:32 | 25.21519 | 54.51628 | 22535 ft | 402 kts | 276° |
| 2026-04-24 14:32 | 25.22121 | 54.48590 | 22943 ft | 407 kts | 283° |
| 2026-04-24 14:33 | 25.22900 | 54.45586 | 23367 ft | 408 kts | 283° |
| 2026-04-24 14:33 | 25.23694 | 54.42567 | 23698 ft | 411 kts | 283° |
| 2026-04-24 14:33 | 25.24482 | 54.39522 | 24005 ft | 413 kts | 283° |
| 2026-04-24 14:33 | 25.25258 | 54.36469 | 24384 ft | 413 kts | 283° |
| 2026-04-24 14:34 | 25.26025 | 54.33411 | 24737 ft | 414 kts | 283° |
| 2026-04-24 14:34 | 25.26794 | 54.30336 | 25019 ft | 416 kts | 283° |
| 2026-04-24 14:34 | 25.27562 | 54.27248 | 25289 ft | 418 kts | 283° |
| 2026-04-24 14:34 | 25.28335 | 54.24139 | 25571 ft | 420 kts | 283° |
| 2026-04-24 14:35 | 25.29109 | 54.21022 | 25843 ft | 422 kts | 283° |
| 2026-04-24 14:35 | 25.29887 | 54.17887 | 26009 ft | 427 kts | 283° |
| 2026-04-24 14:35 | 25.30680 | 54.14689 | 26013 ft | 435 kts | 283° |
| 2026-04-24 14:35 | 25.31468 | 54.11435 | 26021 ft | 441 kts | 282° |
| 2026-04-24 14:36 | 25.32192 | 54.08117 | 26034 ft | 448 kts | 281° |
| 2026-04-24 14:36 | 25.32892 | 54.04737 | 26036 ft | 454 kts | 281° |
| 2026-04-24 14:36 | 25.33597 | 54.01316 | 26035 ft | 460 kts | 281° |
| 2026-04-24 14:36 | 25.34316 | 53.97867 | 26028 ft | 459 kts | 281° |
| 2026-04-24 14:37 | 25.35035 | 53.94467 | 26019 ft | 450 kts | 281° |
| 2026-04-24 14:37 | 25.35745 | 53.91131 | 26015 ft | 441 kts | 281° |
| 2026-04-24 14:37 | 25.36440 | 53.87862 | 26027 ft | 433 kts | 281° |
| 2026-04-24 14:37 | 25.37122 | 53.84646 | 26019 ft | 426 kts | 281° |
| 2026-04-24 14:38 | 25.37788 | 53.81472 | 26014 ft | 420 kts | 281° |
| 2026-04-24 14:38 | 25.38443 | 53.78334 | 25911 ft | 417 kts | 281° |
| 2026-04-24 14:38 | 25.39089 | 53.75229 | 25880 ft | 412 kts | 281° |
| 2026-04-24 14:38 | 25.39728 | 53.72154 | 25866 ft | 408 kts | 281° |
| 2026-04-24 14:39 | 25.40359 | 53.69118 | 25863 ft | 403 kts | 281° |
| 2026-04-24 14:39 | 25.40982 | 53.66113 | 25867 ft | 399 kts | 281° |
| 2026-04-24 14:39 | 25.41393 | 53.64137 | 25866 ft | 397 kts | 281° |
| 2026-04-24 14:39 | 25.42008 | 53.61172 | 25866 ft | 393 kts | 281° |
| 2026-04-24 14:40 | 25.42616 | 53.58238 | 25866 ft | 390 kts | 281° |
| 2026-04-24 14:40 | 25.43223 | 53.55324 | 25864 ft | 387 kts | 281° |
| 2026-04-24 14:40 | 25.43827 | 53.52430 | 25866 ft | 385 kts | 281° |
| 2026-04-24 14:40 | 25.44426 | 53.49560 | 25870 ft | 382 kts | 281° |
| 2026-04-24 14:41 | 25.45021 | 53.46706 | 25868 ft | 380 kts | 281° |
| 2026-04-24 14:41 | 25.45612 | 53.43862 | 25870 ft | 378 kts | 280° |
| 2026-04-24 14:41 | 25.46198 | 53.41039 | 25871 ft | 376 kts | 280° |
| 2026-04-24 14:41 | 25.46781 | 53.38230 | 25882 ft | 374 kts | 281° |
| 2026-04-24 14:42 | 25.47361 | 53.35430 | 25884 ft | 372 kts | 281° |
| 2026-04-24 14:42 | 25.47937 | 53.32645 | 25878 ft | 371 kts | 281° |
| 2026-04-24 14:42 | 25.48511 | 53.29867 | 25877 ft | 369 kts | 281° |
| 2026-04-24 14:42 | 25.49083 | 53.27103 | 25877 ft | 368 kts | 281° |
| 2026-04-24 14:43 | 25.49652 | 53.24345 | 25874 ft | 367 kts | 281° |
| 2026-04-24 14:43 | 25.50218 | 53.21600 | 25871 ft | 366 kts | 281° |
| 2026-04-24 14:43 | 25.50783 | 53.18857 | 25876 ft | 364 kts | 281° |
| 2026-04-24 14:43 | 25.51344 | 53.16128 | 25878 ft | 363 kts | 280° |
| 2026-04-24 14:44 | 25.51904 | 53.13400 | 25881 ft | 363 kts | 280° |
| 2026-04-24 14:44 | 25.52460 | 53.10686 | 25881 ft | 362 kts | 280° |
| 2026-04-24 14:44 | 25.53010 | 53.08005 | 25882 ft | 361 kts | 280° |
| 2026-04-24 14:44 | 25.53563 | 53.05300 | 25882 ft | 360 kts | 280° |
| 2026-04-24 14:45 | 25.54116 | 53.02598 | 25883 ft | 360 kts | 280° |
| 2026-04-24 14:45 | 25.54667 | 52.99899 | 25883 ft | 359 kts | 280° |
| 2026-04-24 14:45 | 25.55217 | 52.97205 | 25881 ft | 359 kts | 280° |
| 2026-04-24 14:45 | 25.55767 | 52.94509 | 25885 ft | 358 kts | 280° |
| 2026-04-24 14:46 | 25.56347 | 52.91828 | 25884 ft | 359 kts | 284° |
| 2026-04-24 14:46 | 25.57246 | 52.89251 | 25881 ft | 361 kts | 294° |
| 2026-04-24 14:46 | 25.58435 | 52.86793 | 25896 ft | 361 kts | 295° |
| 2026-04-24 14:46 | 25.59643 | 52.84360 | 25890 ft | 361 kts | 295° |
| 2026-04-24 14:47 | 25.60855 | 52.81919 | 25886 ft | 361 kts | 295° |
| 2026-04-24 14:47 | 25.62057 | 52.79483 | 25885 ft | 360 kts | 295° |
| 2026-04-24 14:47 | 25.63255 | 52.77044 | 25886 ft | 360 kts | 295° |
| 2026-04-24 14:47 | 25.64445 | 52.74609 | 25887 ft | 360 kts | 295° |
| 2026-04-24 14:48 | 25.65635 | 52.72169 | 25891 ft | 359 kts | 295° |
| 2026-04-24 14:48 | 25.66820 | 52.69734 | 25894 ft | 359 kts | 295° |
| 2026-04-24 14:48 | 25.68002 | 52.67300 | 25893 ft | 359 kts | 295° |
| 2026-04-24 14:48 | 25.69186 | 52.64863 | 25892 ft | 358 kts | 295° |
| 2026-04-24 14:49 | 25.70365 | 52.62432 | 25895 ft | 358 kts | 295° |
| 2026-04-24 14:49 | 25.71547 | 52.59997 | 25896 ft | 358 kts | 295° |
| 2026-04-24 14:49 | 25.72724 | 52.57568 | 25896 ft | 358 kts | 295° |
| 2026-04-24 14:49 | 25.73901 | 52.55140 | 25896 ft | 358 kts | 295° |
| 2026-04-24 14:50 | 25.75078 | 52.52710 | 25894 ft | 358 kts | 295° |
| 2026-04-24 14:50 | 25.76254 | 52.50278 | 25902 ft | 357 kts | 295° |
| 2026-04-24 14:50 | 25.77408 | 52.47841 | 25898 ft | 357 kts | 295° |
| 2026-04-24 14:50 | 25.78553 | 52.45394 | 25900 ft | 357 kts | 294° |
| 2026-04-24 14:51 | 25.79693 | 52.42952 | 25905 ft | 357 kts | 294° |
| 2026-04-24 14:51 | 25.80834 | 52.40509 | 25905 ft | 357 kts | 294° |
| 2026-04-24 14:51 | 25.81977 | 52.38063 | 25902 ft | 357 kts | 294° |
| 2026-04-24 14:51 | 25.83118 | 52.35623 | 25904 ft | 356 kts | 294° |
| 2026-04-24 14:52 | 25.84260 | 52.33179 | 25823 ft | 359 kts | 294° |
| 2026-04-24 14:52 | 25.85439 | 52.30655 | 25127 ft | 379 kts | 295° |
| 2026-04-24 14:52 | 25.86705 | 52.28022 | 24633 ft | 393 kts | 298° |
| 2026-04-24 14:52 | 25.88303 | 52.25543 | 24564 ft | 396 kts | 308° |
| 2026-04-24 14:53 | 25.90134 | 52.23322 | 24560 ft | 394 kts | 309° |
| 2026-04-24 14:53 | 25.92031 | 52.21077 | 24508 ft | 394 kts | 309° |
| 2026-04-24 14:53 | 25.93908 | 52.18851 | 24362 ft | 395 kts | 309° |
| 2026-04-24 14:53 | 25.95782 | 52.16610 | 24233 ft | 397 kts | 309° |
| 2026-04-24 14:54 | 25.97655 | 52.14355 | 24093 ft | 398 kts | 309° |
| 2026-04-24 14:54 | 25.99533 | 52.12086 | 23963 ft | 399 kts | 309° |
| 2026-04-24 14:54 | 26.01409 | 52.09813 | 23835 ft | 400 kts | 309° |
| 2026-04-24 14:54 | 26.03292 | 52.07533 | 23707 ft | 401 kts | 309° |
| 2026-04-24 14:55 | 26.04542 | 52.06018 | 23624 ft | 402 kts | 309° |
| 2026-04-24 14:55 | 26.07070 | 52.02953 | 23446 ft | 402 kts | 309° |
| 2026-04-24 14:55 | 26.08965 | 52.00655 | 23288 ft | 403 kts | 309° |
| 2026-04-24 14:55 | 26.10874 | 51.98337 | 22847 ft | 411 kts | 309° |
| 2026-04-24 14:56 | 26.12781 | 51.96020 | 22386 ft | 408 kts | 309° |
| 2026-04-24 14:56 | 26.14707 | 51.93680 | 21915 ft | 401 kts | 309° |
| 2026-04-24 14:56 | 26.16579 | 51.91405 | 21464 ft | 395 kts | 309° |
| 2026-04-24 14:56 | 26.18398 | 51.89191 | 21024 ft | 390 kts | 309° |
| 2026-04-24 14:57 | 26.20243 | 51.86945 | 20578 ft | 386 kts | 309° |
| 2026-04-24 14:57 | 26.22019 | 51.84782 | 20157 ft | 382 kts | 308° |
| 2026-04-24 14:57 | 26.23801 | 51.82611 | 19742 ft | 378 kts | 308° |
| 2026-04-24 14:57 | 26.25416 | 51.80338 | 19316 ft | 371 kts | 299° |
| 2026-04-24 14:58 | 26.26639 | 51.77844 | 18914 ft | 364 kts | 292° |
| 2026-04-24 14:58 | 26.27731 | 51.75322 | 18505 ft | 360 kts | 292° |
| 2026-04-24 14:58 | 26.28820 | 51.72821 | 18085 ft | 357 kts | 292° |
| 2026-04-24 14:58 | 26.29913 | 51.70344 | 17615 ft | 355 kts | 292° |
| 2026-04-24 14:59 | 26.31002 | 51.67894 | 17161 ft | 352 kts | 292° |
| 2026-04-24 14:59 | 26.32085 | 51.65462 | 16711 ft | 349 kts | 292° |
| 2026-04-24 14:59 | 26.33163 | 51.63041 | 16265 ft | 347 kts | 293° |
| 2026-04-24 14:59 | 26.34232 | 51.60637 | 15826 ft | 345 kts | 293° |
| 2026-04-24 15:00 | 26.35296 | 51.58246 | 15395 ft | 343 kts | 293° |
| 2026-04-24 15:00 | 26.36350 | 51.55871 | 14971 ft | 341 kts | 293° |
| 2026-04-24 15:00 | 26.37400 | 51.53507 | 14547 ft | 340 kts | 293° |
| 2026-04-24 15:00 | 26.38328 | 51.51101 | 14133 ft | 336 kts | 287° |
| 2026-04-24 15:01 | 26.39103 | 51.48653 | 13725 ft | 334 kts | 287° |
| 2026-04-24 15:01 | 26.39856 | 51.46208 | 13270 ft | 333 kts | 286° |
| 2026-04-24 15:01 | 26.40613 | 51.43770 | 12821 ft | 331 kts | 287° |
| 2026-04-24 15:01 | 26.41377 | 51.41350 | 12372 ft | 330 kts | 287° |
| 2026-04-24 15:02 | 26.42139 | 51.38953 | 12049 ft | 323 kts | 287° |
| 2026-04-24 15:02 | 26.42875 | 51.36664 | 11991 ft | 304 kts | 287° |
| 2026-04-24 15:02 | 26.43577 | 51.34511 | 11977 ft | 289 kts | 287° |
| 2026-04-24 15:02 | 26.44268 | 51.32391 | 11988 ft | 291 kts | 287° |
| 2026-04-24 15:03 | 26.44955 | 51.30287 | 11981 ft | 286 kts | 287° |
| 2026-04-24 15:03 | 26.45600 | 51.28244 | 11726 ft | 279 kts | 282° |
| 2026-04-24 15:03 | 26.45682 | 51.26112 | 11427 ft | 269 kts | 261° |
| 2026-04-24 15:03 | 26.45202 | 51.24128 | 11133 ft | 262 kts | 249° |
| 2026-04-24 15:04 | 26.44530 | 51.22287 | 10851 ft | 257 kts | 247° |
| 2026-04-24 15:04 | 26.43825 | 51.20468 | 10567 ft | 254 kts | 247° |
| 2026-04-24 15:04 | 26.43129 | 51.18670 | 10288 ft | 252 kts | 247° |
| 2026-04-24 15:04 | 26.42439 | 51.16873 | 10009 ft | 251 kts | 248° |
| 2026-04-24 15:05 | 26.41759 | 51.15085 | 9740 ft | 250 kts | 248° |
| 2026-04-24 15:05 | 26.41084 | 51.13296 | 9382 ft | 251 kts | 248° |
| 2026-04-24 15:05 | 26.40406 | 51.11490 | 8953 ft | 254 kts | 248° |
| 2026-04-24 15:05 | 26.39721 | 51.09660 | 8483 ft | 256 kts | 249° |
| 2026-04-24 15:06 | 26.39034 | 51.07823 | 8026 ft | 258 kts | 249° |
| 2026-04-24 15:06 | 26.38344 | 51.05974 | 7572 ft | 259 kts | 249° |
| 2026-04-24 15:06 | 26.37653 | 51.04116 | 7126 ft | 260 kts | 249° |
| 2026-04-24 15:06 | 26.36951 | 51.02263 | 6677 ft | 259 kts | 245° |
| 2026-04-24 15:07 | 26.35797 | 51.00717 | 6205 ft | 265 kts | 219° |
| 2026-04-24 15:07 | 26.34239 | 50.99617 | 5777 ft | 265 kts | 214° |
| 2026-04-24 15:07 | 26.32631 | 50.98600 | 5319 ft | 266 kts | 213° |
| 2026-04-24 15:07 | 26.31007 | 50.97601 | 4863 ft | 267 kts | 213° |
| 2026-04-24 15:08 | 26.29374 | 50.96614 | 4399 ft | 267 kts | 213° |
| 2026-04-24 15:08 | 26.27738 | 50.95627 | 3939 ft | 268 kts | 212° |
| 2026-04-24 15:08 | 26.26104 | 50.94623 | 3485 ft | 268 kts | 212° |
| 2026-04-24 15:08 | 26.24490 | 50.93607 | 3160 ft | 264 kts | 212° |
| 2026-04-24 15:09 | 26.22912 | 50.92599 | 2825 ft | 259 kts | 212° |
| 2026-04-24 15:09 | 26.21370 | 50.91601 | 2513 ft | 254 kts | 212° |
| 2026-04-24 15:09 | 26.19860 | 50.90605 | 2185 ft | 250 kts | 212° |
| 2026-04-24 15:09 | 26.18406 | 50.89653 | 2022 ft | 233 kts | 212° |
| 2026-04-24 15:10 | 26.17027 | 50.88750 | 2019 ft | 235 kts | 213° |
| 2026-04-24 15:10 | 26.15650 | 50.87754 | 1983 ft | 233 kts | 225° |
| 2026-04-24 15:10 | 26.14875 | 50.86278 | 1971 ft | 213 kts | 266° |
| 2026-04-24 15:10 | 26.15116 | 50.84791 | 1995 ft | 186 kts | 301° |
| 2026-04-24 15:11 | 26.15678 | 50.83519 | 1988 ft | 183 kts | 297° |
| 2026-04-24 15:11 | 26.16178 | 50.82221 | 1981 ft | 183 kts | 303° |
| 2026-04-24 15:11 | 26.16852 | 50.81019 | 2011 ft | 185 kts | 307° |
| 2026-04-24 15:11 | 26.17571 | 50.79803 | 1997 ft | 189 kts | 307° |
| 2026-04-24 15:12 | 26.18272 | 50.78593 | 1987 ft | 182 kts | 307° |
| 2026-04-24 15:12 | 26.19621 | 50.76261 | 1995 ft | 181 kts | 306° |
| 2026-04-24 15:12 | 26.20308 | 50.75074 | 1994 ft | 183 kts | 306° |
| 2026-04-24 15:13 | 26.20999 | 50.73880 | 1925 ft | 183 kts | 305° |
| 2026-04-24 15:13 | 26.21681 | 50.72699 | 1704 ft | 179 kts | 306° |
| 2026-04-24 15:13 | 26.22359 | 50.71529 | 1454 ft | 181 kts | 307° |
| 2026-04-24 15:13 | 26.23025 | 50.70365 | 1187 ft | 174 kts | 306° |
| 2026-04-24 15:14 | 26.23640 | 50.69242 | 872 ft | 164 kts | 307° |
| 2026-04-24 15:14 | 26.24285 | 50.68228 | 670 ft | 158 kts | 307° |
| 2026-04-24 15:14 | 26.24880 | 50.67214 | 541 ft | 157 kts | 305° |
| 2026-04-24 15:14 | 26.25471 | 50.66124 | 467 ft | 171 kts | 306° |
| 2026-04-24 15:15 | 26.26078 | 50.65007 | 429 ft | 170 kts | 303° |
| 2026-04-24 15:15 | 26.26748 | 50.63775 | 662 ft | 199 kts | 303° |
| 2026-04-24 15:15 | 26.27477 | 50.62416 | 942 ft | 207 kts | 303° |
| 2026-04-24 15:15 | 26.28226 | 50.61048 | 977 ft | 212 kts | 305° |
| 2026-04-24 15:16 | 26.29002 | 50.59694 | 1086 ft | 206 kts | 306° |
| 2026-04-24 15:16 | 26.29771 | 50.58329 | 1147 ft | 208 kts | 304° |
| 2026-04-24 15:16 | 26.30540 | 50.56939 | 1215 ft | 211 kts | 304° |
| 2026-04-24 15:16 | 26.31361 | 50.55602 | 1486 ft | 209 kts | 316° |
| 2026-04-24 15:17 | 26.32613 | 50.54881 | 1920 ft | 208 kts | 351° |
| 2026-04-24 15:17 | 26.34078 | 50.54900 | 2364 ft | 212 kts | 8° |
| 2026-04-24 15:17 | 26.35501 | 50.55337 | 2648 ft | 216 kts | 17° |
| 2026-04-24 15:17 | 26.36879 | 50.55998 | 2679 ft | 217 kts | 25° |
| 2026-04-24 15:18 | 26.38006 | 50.57075 | 2880 ft | 218 kts | 51° |
| 2026-04-24 15:18 | 26.38754 | 50.58579 | 2873 ft | 225 kts | 59° |
| 2026-04-24 15:18 | 26.39432 | 50.60153 | 2768 ft | 227 kts | 60° |
| 2026-04-24 15:18 | 26.39924 | 50.61816 | 2713 ft | 228 kts | 82° |
| 2026-04-24 15:19 | 26.39562 | 50.63554 | 2583 ft | 237 kts | 116° |
| 2026-04-24 15:19 | 26.38698 | 50.65090 | 2707 ft | 236 kts | 120° |
| 2026-04-24 15:19 | 26.37792 | 50.66631 | 2789 ft | 238 kts | 121° |
| 2026-04-24 15:19 | 26.36855 | 50.68165 | 2970 ft | 243 kts | 121° |
| 2026-04-24 15:20 | 26.35898 | 50.69735 | 2927 ft | 246 kts | 122° |
| 2026-04-24 15:20 | 26.34959 | 50.71329 | 2788 ft | 245 kts | 118° |
| 2026-04-24 15:20 | 26.34071 | 50.72933 | 2615 ft | 239 kts | 118° |
| 2026-04-24 15:20 | 26.33214 | 50.74470 | 2631 ft | 228 kts | 118° |
| 2026-04-24 15:21 | 26.32384 | 50.75936 | 2747 ft | 226 kts | 118° |
| 2026-04-24 15:21 | 26.31537 | 50.77456 | 2774 ft | 234 kts | 119° |
| 2026-04-24 15:21 | 26.30652 | 50.79001 | 2766 ft | 237 kts | 120° |
| 2026-04-24 15:21 | 26.29741 | 50.80518 | 2719 ft | 235 kts | 121° |
| 2026-04-24 15:22 | 26.28792 | 50.82016 | 2547 ft | 240 kts | 121° |
| 2026-04-24 15:22 | 26.27819 | 50.83532 | 2271 ft | 240 kts | 125° |
| 2026-04-24 15:22 | 26.26778 | 50.84983 | 1858 ft | 236 kts | 124° |
| 2026-04-24 15:23 | 26.25037 | 50.87864 | 1540 ft | 229 kts | 124° |
| 2026-04-24 15:23 | 26.22360 | 50.89581 | 1583 ft | 234 kts | 173° |
| 2026-04-24 15:23 | 26.20732 | 50.89590 | 1489 ft | 232 kts | 187° |
| 2026-04-24 15:24 | 26.16772 | 50.87653 | 2268 ft | 212 kts | 233° |
| 2026-04-24 15:25 | 26.15607 | 50.85231 | 2381 ft | 211 kts | 261° |
| 2026-04-24 15:25 | 26.15979 | 50.81665 | 1838 ft | 199 kts | 301° |
| 2026-04-24 15:26 | 26.18383 | 50.78354 | 1664 ft | 167 kts | 309° |
| 2026-04-24 15:27 | 26.20227 | 50.75271 | 1072 ft | 158 kts | 306° |
| 2026-04-24 15:27 | 26.22015 | 50.72186 | 865 ft | 158 kts | 304° |
| 2026-04-24 15:28 | 26.24000 | 50.68581 | 1081 ft | 142 kts | 308° |
| 2026-04-24 15:29 | 26.25069 | 50.66795 | 650 ft | 135 kts | 306° |
| 2026-04-24 15:30 | 26.26519 | 50.64347 | 15 ft | 102 kts | 304° |
| 2026-04-24 15:31 | 26.26945 | 50.63150 | 19 ft | 14 kts | 234° |
| 2026-04-24 15:32 | 26.26986 | 50.62818 | 20 ft | 7 kts | 213° |